ETNT

Wittmundhafen Airport

Germany
METAR ETNT 251420Z 29004KT 9999 FEW035 SCT057 15/06 Q1037 BLU+BLU+
Observed Flight Rules
Sep-25 @ 14:20 UTC (an hour ago) Visual Flight Rules
Wind Visibility Clouds
290° at 4 knots 10,000+ meters
  • Few at 3,500' AGL
  • Scattered at 5,700' AGL
Temperatures Readings
Current 15°C / 59°F
Dewpoint 6°C / 43°F
Humidity 55%
Altimeter 30.62" Hg
Pressure 1037 hPa
Elevation 12
METAR ETNT 251420Z 29004KT 9999 FEW035 SCT057 15/06 Q1037 BLU+BLU+
Observed Flight Rules
Sep-25 @ 14:20 UTC
(an hour ago)
VFR
Wind Visibility
290° at 4 knots 10,000+ meters
Clouds
  • Few at 3,500' AGL
  • Scattered at 5,700' AGL
Temperature Dewpoint
15°C / 59°F 6°C / 43°F
Humidity Altimeter Pressure
55% 30.62" Hg 1037 hPa